sensor_id;sensor_type;location;lat;lon;timestamp;P1;P2;P0
30342;PMS5003;17145;49.902;8.680;2023-07-20T00:01:20;12;12;
30342;PMS5003;17145;49.902;8.680;2023-07-20T00:03:47;11;5;
30342;PMS5003;17145;49.902;8.680;2023-07-20T00:06:15;7;6;
30342;PMS5003;17145;49.902;8.680;2023-07-20T00:08:42;5;5;
30342;PMS5003;17145;49.902;8.680;2023-07-20T00:11:10;20;20;
30342;PMS5003;17145;49.902;8.680;2023-07-20T00:13:37;7;7;
30342;PMS5003;17145;49.902;8.680;2023-07-20T00:16:04;6;6;
30342;PMS5003;17145;49.902;8.680;2023-07-20T00:18:32;8;6;
30342;PMS5003;17145;49.902;8.680;2023-07-20T00:20:59;7;6;
30342;PMS5003;17145;49.902;8.680;2023-07-20T00:23:27;6;6;
30342;PMS5003;17145;49.902;8.680;2023-07-20T00:25:55;8;7;
30342;PMS5003;17145;49.902;8.680;2023-07-20T00:28:22;8;7;
30342;PMS5003;17145;49.902;8.680;2023-07-20T00:30:49;5;5;
30342;PMS5003;17145;49.902;8.680;2023-07-20T00:33:17;8;8;
30342;PMS5003;17145;49.902;8.680;2023-07-20T00:35:45;7;7;
30342;PMS5003;17145;49.902;8.680;2023-07-20T00:38:12;33;30;
30342;PMS5003;17145;49.902;8.680;2023-07-20T00:40:40;37;35;
30342;PMS5003;17145;49.902;8.680;2023-07-20T00:43:08;23;20;
30342;PMS5003;17145;49.902;8.680;2023-07-20T00:45:36;14;13;
30342;PMS5003;17145;49.902;8.680;2023-07-20T00:48:05;18;18;
30342;PMS5003;17145;49.902;8.680;2023-07-20T00:50:33;16;12;
30342;PMS5003;17145;49.902;8.680;2023-07-20T00:53:01;6;6;
30342;PMS5003;17145;49.902;8.680;2023-07-20T00:55:30;6;6;
30342;PMS5003;17145;49.902;8.680;2023-07-20T00:57:58;14;13;
30342;PMS5003;17145;49.902;8.680;2023-07-20T01:00:26;12;11;
30342;PMS5003;17145;49.902;8.680;2023-07-20T01:02:53;18;17;
30342;PMS5003;17145;49.902;8.680;2023-07-20T01:05:21;17;17;
30342;PMS5003;17145;49.902;8.680;2023-07-20T01:07:55;12;12;
30342;PMS5003;17145;49.902;8.680;2023-07-20T01:10:31;6;6;
30342;PMS5003;17145;49.902;8.680;2023-07-20T01:13:05;7;7;
30342;PMS5003;17145;49.902;8.680;2023-07-20T01:15:34;8;7;
30342;PMS5003;17145;49.902;8.680;2023-07-20T01:18:01;7;7;
30342;PMS5003;17145;49.902;8.680;2023-07-20T01:20:29;9;8;
30342;PMS5003;17145;49.902;8.680;2023-07-20T01:28:32;6;6;
30342;PMS5003;17145;49.902;8.680;2023-07-20T01:31:16;6;5;
30342;PMS5003;17145;49.902;8.680;2023-07-20T01:33:47;8;7;
30342;PMS5003;17145;49.902;8.680;2023-07-20T01:36:16;6;6;
30342;PMS5003;17145;49.902;8.680;2023-07-20T01:38:45;5;5;
30342;PMS5003;17145;49.902;8.680;2023-07-20T01:41:14;5;5;
30342;PMS5003;17145;49.902;8.680;2023-07-20T01:43:42;5;5;
30342;PMS5003;17145;49.902;8.680;2023-07-20T01:46:09;10;9;
30342;PMS5003;17145;49.902;8.680;2023-07-20T01:48:37;6;6;
30342;PMS5003;17145;49.902;8.680;2023-07-20T01:51:04;6;6;
30342;PMS5003;17145;49.902;8.680;2023-07-20T01:53:32;5;5;
30342;PMS5003;17145;49.902;8.680;2023-07-20T01:55:59;6;6;
30342;PMS5003;17145;49.902;8.680;2023-07-20T01:58:27;6;5;
30342;PMS5003;17145;49.902;8.680;2023-07-20T02:00:54;10;10;
30342;PMS5003;17145;49.902;8.680;2023-07-20T02:03:22;8;7;
30342;PMS5003;17145;49.902;8.680;2023-07-20T02:05:49;14;13;
30342;PMS5003;17145;49.902;8.680;2023-07-20T02:08:16;9;9;
30342;PMS5003;17145;49.902;8.680;2023-07-20T02:10:45;16;16;
30342;PMS5003;17145;49.902;8.680;2023-07-20T02:13:12;3;3;
30342;PMS5003;17145;49.902;8.680;2023-07-20T02:15:39;5;5;
30342;PMS5003;17145;49.902;8.680;2023-07-20T02:18:08;11;11;
30342;PMS5003;17145;49.902;8.680;2023-07-20T02:20:35;6;5;
30342;PMS5003;17145;49.902;8.680;2023-07-20T02:23:03;4;4;
30342;PMS5003;17145;49.902;8.680;2023-07-20T02:25:30;5;5;
30342;PMS5003;17145;49.902;8.680;2023-07-20T02:27:58;7;6;
30342;PMS5003;17145;49.902;8.680;2023-07-20T02:30:25;4;4;
30342;PMS5003;17145;49.902;8.680;2023-07-20T02:32:52;6;6;
30342;PMS5003;17145;49.902;8.680;2023-07-20T02:35:20;6;6;
30342;PMS5003;17145;49.902;8.680;2023-07-20T02:37:48;5;5;
30342;PMS5003;17145;49.902;8.680;2023-07-20T02:40:15;5;5;
30342;PMS5003;17145;49.902;8.680;2023-07-20T02:42:43;6;5;
30342;PMS5003;17145;49.902;8.680;2023-07-20T02:45:10;6;5;
30342;PMS5003;17145;49.902;8.680;2023-07-20T02:47:37;4;4;
30342;PMS5003;17145;49.902;8.680;2023-07-20T02:50:06;4;4;
30342;PMS5003;17145;49.902;8.680;2023-07-20T02:52:35;6;5;
30342;PMS5003;17145;49.902;8.680;2023-07-20T02:55:02;4;4;
30342;PMS5003;17145;49.902;8.680;2023-07-20T02:57:30;6;6;
30342;PMS5003;17145;49.902;8.680;2023-07-20T02:59:57;6;6;
30342;PMS5003;17145;49.902;8.680;2023-07-20T03:02:24;7;6;
30342;PMS5003;17145;49.902;8.680;2023-07-20T03:04:52;6;6;
30342;PMS5003;17145;49.902;8.680;2023-07-20T03:07:19;6;6;
30342;PMS5003;17145;49.902;8.680;2023-07-20T03:09:47;6;6;
30342;PMS5003;17145;49.902;8.680;2023-07-20T03:12:14;6;6;
30342;PMS5003;17145;49.902;8.680;2023-07-20T03:14:42;5;5;
30342;PMS5003;17145;49.902;8.680;2023-07-20T03:17:09;6;5;
30342;PMS5003;17145;49.902;8.680;2023-07-20T03:19:36;7;7;
30342;PMS5003;17145;49.902;8.680;2023-07-20T03:22:04;7;7;
30342;PMS5003;17145;49.902;8.680;2023-07-20T03:24:31;5;5;
30342;PMS5003;17145;49.902;8.680;2023-07-20T03:26:59;5;5;
30342;PMS5003;17145;49.902;8.680;2023-07-20T03:29:26;12;10;
30342;PMS5003;17145;49.902;8.680;2023-07-20T03:31:54;10;9;
30342;PMS5003;17145;49.902;8.680;2023-07-20T03:34:21;7;7;
30342;PMS5003;17145;49.902;8.680;2023-07-20T03:36:49;5;4;
30342;PMS5003;17145;49.902;8.680;2023-07-20T03:39:16;10;9;
30342;PMS5003;17145;49.902;8.680;2023-07-20T03:41:44;8;6;
30342;PMS5003;17145;49.902;8.680;2023-07-20T03:44:11;8;7;
30342;PMS5003;17145;49.902;8.680;2023-07-20T03:46:38;7;7;
30342;PMS5003;17145;49.902;8.680;2023-07-20T03:49:06;8;7;
30342;PMS5003;17145;49.902;8.680;2023-07-20T03:51:33;6;6;
30342;PMS5003;17145;49.902;8.680;2023-07-20T03:54:01;5;5;
30342;PMS5003;17145;49.902;8.680;2023-07-20T03:56:28;4;4;
30342;PMS5003;17145;49.902;8.680;2023-07-20T03:58:56;5;5;
30342;PMS5003;17145;49.902;8.680;2023-07-20T04:01:23;5;5;
30342;PMS5003;17145;49.902;8.680;2023-07-20T04:03:51;3;3;
30342;PMS5003;17145;49.902;8.680;2023-07-20T04:06:18;5;5;
30342;PMS5003;17145;49.902;8.680;2023-07-20T04:08:46;6;6;
30342;PMS5003;17145;49.902;8.680;2023-07-20T04:11:13;9;9;
30342;PMS5003;17145;49.902;8.680;2023-07-20T04:13:41;11;11;
30342;PMS5003;17145;49.902;8.680;2023-07-20T04:16:08;9;9;
30342;PMS5003;17145;49.902;8.680;2023-07-20T04:18:35;5;5;
30342;PMS5003;17145;49.902;8.680;2023-07-20T04:21:03;4;4;
30342;PMS5003;17145;49.902;8.680;2023-07-20T04:23:30;5;5;
30342;PMS5003;17145;49.902;8.680;2023-07-20T04:25:58;8;8;
30342;PMS5003;17145;49.902;8.680;2023-07-20T04:28:25;7;6;
30342;PMS5003;17145;49.902;8.680;2023-07-20T04:30:53;6;6;
30342;PMS5003;17145;49.902;8.680;2023-07-20T04:33:20;10;10;
30342;PMS5003;17145;49.902;8.680;2023-07-20T04:35:49;9;9;
30342;PMS5003;17145;49.902;8.680;2023-07-20T04:38:17;6;6;
30342;PMS5003;17145;49.902;8.680;2023-07-20T04:40:46;9;8;
30342;PMS5003;17145;49.902;8.680;2023-07-20T04:43:15;15;14;
30342;PMS5003;17145;49.902;8.680;2023-07-20T04:45:44;21;18;
30342;PMS5003;17145;49.902;8.680;2023-07-20T04:48:12;34;29;
30342;PMS5003;17145;49.902;8.680;2023-07-20T04:50:40;120;114;
30342;PMS5003;17145;49.902;8.680;2023-07-20T04:53:08;41;37;
30342;PMS5003;17145;49.902;8.680;2023-07-20T04:55:36;43;37;
30342;PMS5003;17145;49.902;8.680;2023-07-20T04:58:03;78;72;
30342;PMS5003;17145;49.902;8.680;2023-07-20T05:00:32;88;83;
30342;PMS5003;17145;49.902;8.680;2023-07-20T05:03:00;173;166;
30342;PMS5003;17145;49.902;8.680;2023-07-20T05:05:27;70;64;
30342;PMS5003;17145;49.902;8.680;2023-07-20T05:07:55;24;19;
30342;PMS5003;17145;49.902;8.680;2023-07-20T05:10:23;30;25;
30342;PMS5003;17145;49.902;8.680;2023-07-20T05:12:51;19;14;
30342;PMS5003;17145;49.902;8.680;2023-07-20T05:15:18;19;15;
30342;PMS5003;17145;49.902;8.680;2023-07-20T05:20:28;43;40;
30342;PMS5003;17145;49.902;8.680;2023-07-20T05:22:55;27;23;
30342;PMS5003;17145;49.902;8.680;2023-07-20T05:25:22;36;35;
30342;PMS5003;17145;49.902;8.680;2023-07-20T05:27:49;55;54;
30342;PMS5003;17145;49.902;8.680;2023-07-20T05:30:18;20;15;
30342;PMS5003;17145;49.902;8.680;2023-07-20T05:32:46;38;32;
30342;PMS5003;17145;49.902;8.680;2023-07-20T05:35:16;46;41;
30342;PMS5003;17145;49.902;8.680;2023-07-20T05:37:43;14;9;
30342;PMS5003;17145;49.902;8.680;2023-07-20T05:40:11;23;17;
30342;PMS5003;17145;49.902;8.680;2023-07-20T05:42:39;22;16;
30342;PMS5003;17145;49.902;8.680;2023-07-20T05:45:07;30;24;
30342;PMS5003;17145;49.902;8.680;2023-07-20T05:47:35;75;70;
30342;PMS5003;17145;49.902;8.680;2023-07-20T05:50:02;57;51;
30342;PMS5003;17145;49.902;8.680;2023-07-20T05:52:30;22;17;
30342;PMS5003;17145;49.902;8.680;2023-07-20T05:54:57;36;29;
30342;PMS5003;17145;49.902;8.680;2023-07-20T05:57:25;22;15;
30342;PMS5003;17145;49.902;8.680;2023-07-20T05:59:52;21;17;
30342;PMS5003;17145;49.902;8.680;2023-07-20T06:02:19;15;9;
30342;PMS5003;17145;49.902;8.680;2023-07-20T06:04:47;46;38;
30342;PMS5003;17145;49.902;8.680;2023-07-20T06:07:14;50;46;
30342;PMS5003;17145;49.902;8.680;2023-07-20T06:09:42;18;13;
30342;PMS5003;17145;49.902;8.680;2023-07-20T06:12:09;29;22;
30342;PMS5003;17145;49.902;8.680;2023-07-20T06:14:37;33;28;
30342;PMS5003;17145;49.902;8.680;2023-07-20T06:17:04;24;19;
30342;PMS5003;17145;49.902;8.680;2023-07-20T06:19:32;18;12;
30342;PMS5003;17145;49.902;8.680;2023-07-20T06:21:59;20;14;
30342;PMS5003;17145;49.902;8.680;2023-07-20T06:24:27;24;18;
30342;PMS5003;17145;49.902;8.680;2023-07-20T06:26:54;28;24;
30342;PMS5003;17145;49.902;8.680;2023-07-20T06:29:22;19;13;
30342;PMS5003;17145;49.902;8.680;2023-07-20T06:31:49;17;13;
30342;PMS5003;17145;49.902;8.680;2023-07-20T06:34:16;14;9;
30342;PMS5003;17145;49.902;8.680;2023-07-20T06:36:44;22;17;
30342;PMS5003;17145;49.902;8.680;2023-07-20T06:39:11;22;19;
30342;PMS5003;17145;49.902;8.680;2023-07-20T06:41:39;67;67;
30342;PMS5003;17145;49.902;8.680;2023-07-20T06:44:06;5;5;
30342;PMS5003;17145;49.902;8.680;2023-07-20T06:46:34;7;7;
30342;PMS5003;17145;49.902;8.680;2023-07-20T06:49:01;4;4;
30342;PMS5003;17145;49.902;8.680;2023-07-20T06:51:29;5;5;
30342;PMS5003;17145;49.902;8.680;2023-07-20T06:53:56;4;4;
30342;PMS5003;17145;49.902;8.680;2023-07-20T06:56:24;7;4;
30342;PMS5003;17145;49.902;8.680;2023-07-20T06:58:51;7;7;
30342;PMS5003;17145;49.902;8.680;2023-07-20T07:01:18;5;5;
30342;PMS5003;17145;49.902;8.680;2023-07-20T07:03:46;5;4;
30342;PMS5003;17145;49.902;8.680;2023-07-20T07:06:13;5;4;
30342;PMS5003;17145;49.902;8.680;2023-07-20T07:08:41;6;5;
30342;PMS5003;17145;49.902;8.680;2023-07-20T07:11:08;20;20;
30342;PMS5003;17145;49.902;8.680;2023-07-20T07:13:36;4;4;
30342;PMS5003;17145;49.902;8.680;2023-07-20T07:16:03;3;3;
30342;PMS5003;17145;49.902;8.680;2023-07-20T07:18:31;4;4;
30342;PMS5003;17145;49.902;8.680;2023-07-20T07:20:58;4;4;
30342;PMS5003;17145;49.902;8.680;2023-07-20T07:23:26;4;4;
30342;PMS5003;17145;49.902;8.680;2023-07-20T07:25:53;3;3;
30342;PMS5003;17145;49.902;8.680;2023-07-20T07:28:21;2;2;
30342;PMS5003;17145;49.902;8.680;2023-07-20T07:30:48;7;7;
30342;PMS5003;17145;49.902;8.680;2023-07-20T07:33:15;4;3;
30342;PMS5003;17145;49.902;8.680;2023-07-20T07:35:43;5;5;
30342;PMS5003;17145;49.902;8.680;2023-07-20T07:38:10;3;3;
30342;PMS5003;17145;49.902;8.680;2023-07-20T07:40:37;16;13;
30342;PMS5003;17145;49.902;8.680;2023-07-20T07:43:05;14;13;
30342;PMS5003;17145;49.902;8.680;2023-07-20T07:45:34;24;23;
30342;PMS5003;17145;49.902;8.680;2023-07-20T07:48:02;14;14;
30342;PMS5003;17145;49.902;8.680;2023-07-20T07:50:30;4;4;
30342;PMS5003;17145;49.902;8.680;2023-07-20T07:52:57;4;4;
30342;PMS5003;17145;49.902;8.680;2023-07-20T07:55:25;5;5;
30342;PMS5003;17145;49.902;8.680;2023-07-20T07:57:52;4;4;
30342;PMS5003;17145;49.902;8.680;2023-07-20T08:00:20;3;3;
30342;PMS5003;17145;49.902;8.680;2023-07-20T08:02:47;3;3;
30342;PMS5003;17145;49.902;8.680;2023-07-20T08:05:16;5;4;
30342;PMS5003;17145;49.902;8.680;2023-07-20T08:07:44;4;4;
30342;PMS5003;17145;49.902;8.680;2023-07-20T08:10:11;4;3;
30342;PMS5003;17145;49.902;8.680;2023-07-20T08:12:39;3;3;
30342;PMS5003;17145;49.902;8.680;2023-07-20T08:15:07;2;2;
30342;PMS5003;17145;49.902;8.680;2023-07-20T08:17:34;6;6;
30342;PMS5003;17145;49.902;8.680;2023-07-20T08:20:02;5;4;
30342;PMS5003;17145;49.902;8.680;2023-07-20T08:22:29;5;4;
30342;PMS5003;17145;49.902;8.680;2023-07-20T08:24:56;5;5;
30342;PMS5003;17145;49.902;8.680;2023-07-20T08:27:24;4;4;
30342;PMS5003;17145;49.902;8.680;2023-07-20T08:29:52;4;4;
30342;PMS5003;17145;49.902;8.680;2023-07-20T08:32:20;6;5;
30342;PMS5003;17145;49.902;8.680;2023-07-20T08:34:47;5;5;
30342;PMS5003;17145;49.902;8.680;2023-07-20T08:37:15;4;4;
30342;PMS5003;17145;49.902;8.680;2023-07-20T08:39:42;6;6;
30342;PMS5003;17145;49.902;8.680;2023-07-20T08:42:10;7;6;
30342;PMS5003;17145;49.902;8.680;2023-07-20T08:44:40;5;5;
30342;PMS5003;17145;49.902;8.680;2023-07-20T08:47:09;5;5;
30342;PMS5003;17145;49.902;8.680;2023-07-20T08:49:39;5;5;
30342;PMS5003;17145;49.902;8.680;2023-07-20T08:52:07;6;5;
30342;PMS5003;17145;49.902;8.680;2023-07-20T08:54:35;4;4;
30342;PMS5003;17145;49.902;8.680;2023-07-20T08:57:03;4;4;
30342;PMS5003;17145;49.902;8.680;2023-07-20T08:59:32;5;5;
30342;PMS5003;17145;49.902;8.680;2023-07-20T09:02:03;4;4;
30342;PMS5003;17145;49.902;8.680;2023-07-20T09:04:32;5;5;
30342;PMS5003;17145;49.902;8.680;2023-07-20T09:06:59;5;5;
30342;PMS5003;17145;49.902;8.680;2023-07-20T09:09:28;5;5;
30342;PMS5003;17145;49.902;8.680;2023-07-20T09:11:56;5;5;
30342;PMS5003;17145;49.902;8.680;2023-07-20T09:14:24;5;5;
30342;PMS5003;17145;49.902;8.680;2023-07-20T09:16:52;5;5;
30342;PMS5003;17145;49.902;8.680;2023-07-20T09:19:21;6;6;
30342;PMS5003;17145;49.902;8.680;2023-07-20T09:21:49;5;5;
30342;PMS5003;17145;49.902;8.680;2023-07-20T09:24:18;5;5;
30342;PMS5003;17145;49.902;8.680;2023-07-20T09:26:47;5;4;
30342;PMS5003;17145;49.902;8.680;2023-07-20T09:29:17;4;4;
30342;PMS5003;17145;49.902;8.680;2023-07-20T09:34:23;5;5;
30342;PMS5003;17145;49.902;8.680;2023-07-20T09:36:50;5;5;
30342;PMS5003;17145;49.902;8.680;2023-07-20T09:39:18;5;5;
30342;PMS5003;17145;49.902;8.680;2023-07-20T09:41:46;3;3;
30342;PMS5003;17145;49.902;8.680;2023-07-20T09:44:14;6;5;
30342;PMS5003;17145;49.902;8.680;2023-07-20T09:46:42;6;5;
30342;PMS5003;17145;49.902;8.680;2023-07-20T09:49:11;10;9;
30342;PMS5003;17145;49.902;8.680;2023-07-20T09:51:38;13;12;
30342;PMS5003;17145;49.902;8.680;2023-07-20T09:54:06;12;11;
30342;PMS5003;17145;49.902;8.680;2023-07-20T09:56:34;14;14;
30342;PMS5003;17145;49.902;8.680;2023-07-20T09:59:03;8;8;
30342;PMS5003;17145;49.902;8.680;2023-07-20T10:01:31;8;8;
30342;PMS5003;17145;49.902;8.680;2023-07-20T10:04:02;8;8;
30342;PMS5003;17145;49.902;8.680;2023-07-20T10:06:31;5;5;
30342;PMS5003;17145;49.902;8.680;2023-07-20T10:09:02;6;6;
30342;PMS5003;17145;49.902;8.680;2023-07-20T10:11:32;9;7;
30342;PMS5003;17145;49.902;8.680;2023-07-20T10:14:03;6;5;
30342;PMS5003;17145;49.902;8.680;2023-07-20T10:16:32;6;5;
30342;PMS5003;17145;49.902;8.680;2023-07-20T10:19:03;9;6;
30342;PMS5003;17145;49.902;8.680;2023-07-20T10:21:35;4;4;
30342;PMS5003;17145;49.902;8.680;2023-07-20T10:24:09;7;7;
30342;PMS5003;17145;49.902;8.680;2023-07-20T10:26:38;6;6;
30342;PMS5003;17145;49.902;8.680;2023-07-20T10:29:05;8;8;
30342;PMS5003;17145;49.902;8.680;2023-07-20T10:31:34;8;8;
30342;PMS5003;17145;49.902;8.680;2023-07-20T10:34:03;15;15;
30342;PMS5003;17145;49.902;8.680;2023-07-20T10:36:31;38;38;
30342;PMS5003;17145;49.902;8.680;2023-07-20T10:38:59;34;34;
30342;PMS5003;17145;49.902;8.680;2023-07-20T10:41:27;26;26;
30342;PMS5003;17145;49.902;8.680;2023-07-20T10:43:58;19;18;
30342;PMS5003;17145;49.902;8.680;2023-07-20T10:46:34;21;21;
30342;PMS5003;17145;49.902;8.680;2023-07-20T10:49:07;64;64;
30342;PMS5003;17145;49.902;8.680;2023-07-20T10:51:39;10;10;
30342;PMS5003;17145;49.902;8.680;2023-07-20T10:54:07;15;15;
30342;PMS5003;17145;49.902;8.680;2023-07-20T10:56:41;55;54;
30342;PMS5003;17145;49.902;8.680;2023-07-20T11:01:45;10;10;
30342;PMS5003;17145;49.902;8.680;2023-07-20T11:04:13;28;28;
30342;PMS5003;17145;49.902;8.680;2023-07-20T11:06:42;27;26;
30342;PMS5003;17145;49.902;8.680;2023-07-20T11:09:10;10;10;
30342;PMS5003;17145;49.902;8.680;2023-07-20T11:11:38;24;24;
30342;PMS5003;17145;49.902;8.680;2023-07-20T11:14:07;6;6;
30342;PMS5003;17145;49.902;8.680;2023-07-20T11:16:38;7;6;
30342;PMS5003;17145;49.902;8.680;2023-07-20T11:19:12;6;6;
30342;PMS5003;17145;49.902;8.680;2023-07-20T11:21:43;6;6;
30342;PMS5003;17145;49.902;8.680;2023-07-20T11:24:11;5;4;
30342;PMS5003;17145;49.902;8.680;2023-07-20T11:26:40;6;6;
30342;PMS5003;17145;49.902;8.680;2023-07-20T11:29:08;7;6;
30342;PMS5003;17145;49.902;8.680;2023-07-20T11:31:36;6;6;
30342;PMS5003;17145;49.902;8.680;2023-07-20T11:34:04;8;7;
30342;PMS5003;17145;49.902;8.680;2023-07-20T11:36:33;9;8;
30342;PMS5003;17145;49.902;8.680;2023-07-20T11:39:01;9;9;
30342;PMS5003;17145;49.902;8.680;2023-07-20T11:41:29;7;7;
30342;PMS5003;17145;49.902;8.680;2023-07-20T11:43:56;8;7;
30342;PMS5003;17145;49.902;8.680;2023-07-20T11:46:24;7;7;
30342;PMS5003;17145;49.902;8.680;2023-07-20T11:48:55;7;7;
30342;PMS5003;17145;49.902;8.680;2023-07-20T11:51:24;7;7;
30342;PMS5003;17145;49.902;8.680;2023-07-20T11:53:53;7;7;
30342;PMS5003;17145;49.902;8.680;2023-07-20T11:56:21;7;6;
30342;PMS5003;17145;49.902;8.680;2023-07-20T11:58:49;7;7;
30342;PMS5003;17145;49.902;8.680;2023-07-20T12:01:17;7;7;
30342;PMS5003;17145;49.902;8.680;2023-07-20T12:03:44;5;5;
30342;PMS5003;17145;49.902;8.680;2023-07-20T12:06:13;5;5;
30342;PMS5003;17145;49.902;8.680;2023-07-20T12:08:41;5;5;
30342;PMS5003;17145;49.902;8.680;2023-07-20T12:11:09;8;8;
30342;PMS5003;17145;49.902;8.680;2023-07-20T12:13:37;7;7;
30342;PMS5003;17145;49.902;8.680;2023-07-20T12:16:08;8;7;
30342;PMS5003;17145;49.902;8.680;2023-07-20T12:18:37;7;7;
30342;PMS5003;17145;49.902;8.680;2023-07-20T12:21:05;8;7;
30342;PMS5003;17145;49.902;8.680;2023-07-20T12:23:37;6;6;
30342;PMS5003;17145;49.902;8.680;2023-07-20T12:26:06;6;6;
30342;PMS5003;17145;49.902;8.680;2023-07-20T12:28:35;8;8;
30342;PMS5003;17145;49.902;8.680;2023-07-20T12:31:06;8;8;
30342;PMS5003;17145;49.902;8.680;2023-07-20T12:33:33;7;7;
30342;PMS5003;17145;49.902;8.680;2023-07-20T12:36:01;8;8;
30342;PMS5003;17145;49.902;8.680;2023-07-20T12:38:29;18;18;
30342;PMS5003;17145;49.902;8.680;2023-07-20T12:40:57;8;7;
30342;PMS5003;17145;49.902;8.680;2023-07-20T12:43:24;11;10;
30342;PMS5003;17145;49.902;8.680;2023-07-20T12:45:52;7;7;
30342;PMS5003;17145;49.902;8.680;2023-07-20T12:48:20;8;8;
30342;PMS5003;17145;49.902;8.680;2023-07-20T12:50:47;7;6;
30342;PMS5003;17145;49.902;8.680;2023-07-20T12:53:16;9;8;
30342;PMS5003;17145;49.902;8.680;2023-07-20T12:55:43;6;6;
30342;PMS5003;17145;49.902;8.680;2023-07-20T12:58:11;11;10;
30342;PMS5003;17145;49.902;8.680;2023-07-20T13:00:38;7;7;
30342;PMS5003;17145;49.902;8.680;2023-07-20T13:03:06;7;7;
30342;PMS5003;17145;49.902;8.680;2023-07-20T13:05:33;7;7;
30342;PMS5003;17145;49.902;8.680;2023-07-20T13:08:01;6;6;
30342;PMS5003;17145;49.902;8.680;2023-07-20T13:10:29;11;8;
30342;PMS5003;17145;49.902;8.680;2023-07-20T13:12:57;8;8;
30342;PMS5003;17145;49.902;8.680;2023-07-20T13:15:24;7;7;
30342;PMS5003;17145;49.902;8.680;2023-07-20T13:17:57;9;7;
30342;PMS5003;17145;49.902;8.680;2023-07-20T13:20:25;8;8;
30342;PMS5003;17145;49.902;8.680;2023-07-20T13:22:53;9;7;
30342;PMS5003;17145;49.902;8.680;2023-07-20T13:25:21;8;8;
30342;PMS5003;17145;49.902;8.680;2023-07-20T13:27:48;8;7;
30342;PMS5003;17145;49.902;8.680;2023-07-20T13:30:16;8;7;
30342;PMS5003;17145;49.902;8.680;2023-07-20T13:32:43;8;8;
30342;PMS5003;17145;49.902;8.680;2023-07-20T13:35:11;7;7;
30342;PMS5003;17145;49.902;8.680;2023-07-20T13:37:39;7;7;
30342;PMS5003;17145;49.902;8.680;2023-07-20T13:40:07;10;10;
30342;PMS5003;17145;49.902;8.680;2023-07-20T13:42:36;12;11;
30342;PMS5003;17145;49.902;8.680;2023-07-20T13:45:04;10;10;
30342;PMS5003;17145;49.902;8.680;2023-07-20T13:47:33;10;9;
30342;PMS5003;17145;49.902;8.680;2023-07-20T13:50:00;13;12;
30342;PMS5003;17145;49.902;8.680;2023-07-20T13:52:28;10;9;
30342;PMS5003;17145;49.902;8.680;2023-07-20T13:54:56;8;8;
30342;PMS5003;17145;49.902;8.680;2023-07-20T13:57:23;8;7;
30342;PMS5003;17145;49.902;8.680;2023-07-20T13:59:51;9;8;
30342;PMS5003;17145;49.902;8.680;2023-07-20T14:02:19;8;7;
30342;PMS5003;17145;49.902;8.680;2023-07-20T14:04:46;8;8;
30342;PMS5003;17145;49.902;8.680;2023-07-20T14:07:13;10;8;
30342;PMS5003;17145;49.902;8.680;2023-07-20T14:09:41;9;8;
30342;PMS5003;17145;49.902;8.680;2023-07-20T14:12:09;8;8;
30342;PMS5003;17145;49.902;8.680;2023-07-20T14:14:36;8;8;
30342;PMS5003;17145;49.902;8.680;2023-07-20T14:17:04;8;6;
30342;PMS5003;17145;49.902;8.680;2023-07-20T14:19:31;8;8;
30342;PMS5003;17145;49.902;8.680;2023-07-20T14:21:59;8;7;
30342;PMS5003;17145;49.902;8.680;2023-07-20T14:24:26;8;8;
30342;PMS5003;17145;49.902;8.680;2023-07-20T14:26:54;8;7;
30342;PMS5003;17145;49.902;8.680;2023-07-20T14:29:21;8;7;
30342;PMS5003;17145;49.902;8.680;2023-07-20T14:31:48;5;5;
30342;PMS5003;17145;49.902;8.680;2023-07-20T14:34:16;7;7;
30342;PMS5003;17145;49.902;8.680;2023-07-20T14:36:43;8;8;
30342;PMS5003;17145;49.902;8.680;2023-07-20T14:39:10;7;7;
30342;PMS5003;17145;49.902;8.680;2023-07-20T14:41:38;6;6;
30342;PMS5003;17145;49.902;8.680;2023-07-20T14:44:05;9;8;
30342;PMS5003;17145;49.902;8.680;2023-07-20T14:46:33;8;7;
30342;PMS5003;17145;49.902;8.680;2023-07-20T14:49:01;8;7;
30342;PMS5003;17145;49.902;8.680;2023-07-20T14:51:28;6;6;
30342;PMS5003;17145;49.902;8.680;2023-07-20T14:53:55;9;9;
30342;PMS5003;17145;49.902;8.680;2023-07-20T14:56:23;7;7;
30342;PMS5003;17145;49.902;8.680;2023-07-20T14:58:50;8;7;
30342;PMS5003;17145;49.902;8.680;2023-07-20T15:01:17;8;7;
30342;PMS5003;17145;49.902;8.680;2023-07-20T15:03:45;7;6;
30342;PMS5003;17145;49.902;8.680;2023-07-20T15:06:12;10;10;
30342;PMS5003;17145;49.902;8.680;2023-07-20T15:08:40;7;7;
30342;PMS5003;17145;49.902;8.680;2023-07-20T15:11:07;8;8;
30342;PMS5003;17145;49.902;8.680;2023-07-20T15:13:34;10;9;
30342;PMS5003;17145;49.902;8.680;2023-07-20T15:16:02;9;8;
30342;PMS5003;17145;49.902;8.680;2023-07-20T15:18:29;10;9;
30342;PMS5003;17145;49.902;8.680;2023-07-20T15:20:57;8;8;
30342;PMS5003;17145;49.902;8.680;2023-07-20T15:23:24;9;8;
30342;PMS5003;17145;49.902;8.680;2023-07-20T15:25:52;8;8;
30342;PMS5003;17145;49.902;8.680;2023-07-20T15:28:19;9;8;
30342;PMS5003;17145;49.902;8.680;2023-07-20T15:30:46;10;8;
30342;PMS5003;17145;49.902;8.680;2023-07-20T15:33:14;10;9;
30342;PMS5003;17145;49.902;8.680;2023-07-20T15:35:41;6;6;
30342;PMS5003;17145;49.902;8.680;2023-07-20T15:38:09;7;7;
30342;PMS5003;17145;49.902;8.680;2023-07-20T15:40:36;6;6;
30342;PMS5003;17145;49.902;8.680;2023-07-20T15:43:03;9;8;
30342;PMS5003;17145;49.902;8.680;2023-07-20T15:45:31;8;8;
30342;PMS5003;17145;49.902;8.680;2023-07-20T15:47:59;8;7;
30342;PMS5003;17145;49.902;8.680;2023-07-20T15:50:26;8;8;
30342;PMS5003;17145;49.902;8.680;2023-07-20T15:52:54;6;6;
30342;PMS5003;17145;49.902;8.680;2023-07-20T15:55:22;13;8;
30342;PMS5003;17145;49.902;8.680;2023-07-20T15:57:49;8;8;
30342;PMS5003;17145;49.902;8.680;2023-07-20T16:00:18;10;9;
30342;PMS5003;17145;49.902;8.680;2023-07-20T16:02:46;8;8;
30342;PMS5003;17145;49.902;8.680;2023-07-20T16:05:13;8;8;
30342;PMS5003;17145;49.902;8.680;2023-07-20T16:07:41;7;7;
30342;PMS5003;17145;49.902;8.680;2023-07-20T16:10:09;9;7;
30342;PMS5003;17145;49.902;8.680;2023-07-20T16:12:37;6;6;
30342;PMS5003;17145;49.902;8.680;2023-07-20T16:15:04;6;6;
30342;PMS5003;17145;49.902;8.680;2023-07-20T16:17:32;8;8;
30342;PMS5003;17145;49.902;8.680;2023-07-20T16:20:00;9;8;
30342;PMS5003;17145;49.902;8.680;2023-07-20T16:22:27;9;7;
30342;PMS5003;17145;49.902;8.680;2023-07-20T16:24:55;8;8;
30342;PMS5003;17145;49.902;8.680;2023-07-20T16:27:22;9;8;
30342;PMS5003;17145;49.902;8.680;2023-07-20T16:29:50;9;8;
30342;PMS5003;17145;49.902;8.680;2023-07-20T16:32:17;9;8;
30342;PMS5003;17145;49.902;8.680;2023-07-20T16:34:45;8;7;
30342;PMS5003;17145;49.902;8.680;2023-07-20T16:37:12;9;8;
30342;PMS5003;17145;49.902;8.680;2023-07-20T16:39:40;9;8;
30342;PMS5003;17145;49.902;8.680;2023-07-20T16:42:08;7;7;
30342;PMS5003;17145;49.902;8.680;2023-07-20T16:44:35;9;9;
30342;PMS5003;17145;49.902;8.680;2023-07-20T16:47:03;11;8;
30342;PMS5003;17145;49.902;8.680;2023-07-20T16:49:30;6;6;
30342;PMS5003;17145;49.902;8.680;2023-07-20T16:51:58;8;7;
30342;PMS5003;17145;49.902;8.680;2023-07-20T16:54:25;8;6;
30342;PMS5003;17145;49.902;8.680;2023-07-20T16:56:53;8;7;
30342;PMS5003;17145;49.902;8.680;2023-07-20T16:59:20;7;7;
30342;PMS5003;17145;49.902;8.680;2023-07-20T17:01:47;7;7;